Time;durP1;ratioP1;P1;durP2;ratioP2;P2;SDS_P1;SDS_P2;PMS_P1;PMS_P2;Temp;Humidity;BMP_temperature;BMP_pressure;BME280_temperature;BME280_humidity;BME280_pressure;Samples;Min_cycle;Max_cycle;Signal;HPM_P1;HPM_P2
2023/10/18 00:00:29;;;;;;;56.17;2.40;;;;;;;;;;5051069;28;20516;-70
2023/10/18 00:02:57;;;;;;;56.20;2.37;;;;;;;;;;5047864;28;20225;-70
2023/10/18 00:05:25;;;;;;;57.25;2.80;;;;;;;;;;5048846;28;20887;-70
2023/10/18 00:07:54;;;;;;;56.60;3.03;;;;;;;;;;5051331;28;20252;-70
2023/10/18 00:10:21;;;;;;;57.90;3.25;;;;;;;;;;5050789;28;20475;-70
2023/10/18 00:12:48;;;;;;;57.13;3.38;;;;;;;;;;5051669;28;20226;-71
2023/10/18 00:15:16;;;;;;;56.27;2.77;;;;;;;;;;5051635;28;20591;-70
2023/10/18 00:17:44;;;;;;;56.92;2.80;;;;;;;;;;5051534;28;20449;-70
2023/10/18 00:20:15;;;;;;;57.00;2.90;;;;;;;;;;5051400;28;20341;-70
2023/10/18 00:22:43;;;;;;;56.67;2.70;;;;;;;;;;5051030;28;20491;-70
2023/10/18 00:25:11;;;;;;;57.85;3.47;;;;;;;;;;5051817;28;20202;-70
2023/10/18 00:27:39;;;;;;;57.83;3.20;;;;;;;;;;5051021;28;20241;-70
2023/10/18 00:30:07;;;;;;;56.65;2.80;;;;;;;;;;5051210;28;20221;-70
2023/10/18 00:32:34;;;;;;;56.80;3.42;;;;;;;;;;5051092;28;20222;-70
2023/10/18 00:35:01;;;;;;;58.35;2.92;;;;;;;;;;5051080;28;20582;-70
2023/10/18 00:37:30;;;;;;;56.37;2.70;;;;;;;;;;5051045;28;20210;-70
2023/10/18 00:39:57;;;;;;;56.40;3.10;;;;;;;;;;5051008;28;20471;-70
2023/10/18 00:42:25;;;;;;;55.97;2.60;;;;;;;;;;5051092;28;20480;-71
2023/10/18 00:44:55;;;;;;;56.63;3.00;;;;;;;;;;5051065;28;20490;-70
2023/10/18 00:47:22;;;;;;;58.10;3.10;;;;;;;;;;5050659;28;20206;-70
2023/10/18 00:49:52;;;;;;;56.47;2.70;;;;;;;;;;5050874;28;20225;-71
2023/10/18 00:52:20;;;;;;;57.80;4.65;;;;;;;;;;5051068;28;20457;-70
2023/10/18 00:54:49;;;;;;;57.70;2.90;;;;;;;;;;5051061;28;20198;-70
2023/10/18 00:57:20;;;;;;;57.08;4.30;;;;;;;;;;5051014;28;20585;-70
2023/10/18 00:59:49;;;;;;;62.40;4.07;;;;;;;;;;5042861;28;20221;-70
2023/10/18 01:02:19;;;;;;;56.80;3.30;;;;;;;;;;5050704;28;20484;-70
2023/10/18 01:04:46;;;;;;;57.60;4.67;;;;;;;;;;5042653;28;20848;-70
2023/10/18 01:07:15;;;;;;;56.47;2.85;;;;;;;;;;5050905;28;20538;-70
2023/10/18 01:09:47;;;;;;;56.75;3.10;;;;;;;;;;5050529;28;20218;-70
2023/10/18 01:12:17;;;;;;;57.17;4.43;;;;;;;;;;5050750;28;20287;-70
2023/10/18 01:14:44;;;;;;;56.60;2.93;;;;;;;;;;5050047;28;20285;-70
2023/10/18 01:17:11;;;;;;;57.40;4.40;;;;;;;;;;5046051;28;20444;-70
2023/10/18 01:19:40;;;;;;;56.70;2.88;;;;;;;;;;5050494;28;20460;-70
2023/10/18 01:22:07;;;;;;;57.67;3.00;;;;;;;;;;5050488;28;20243;-71
2023/10/18 01:24:36;;;;;;;58.88;4.55;;;;;;;;;;5050236;28;21007;-70
2023/10/18 01:27:03;;;;;;;56.67;2.80;;;;;;;;;;5050574;28;20198;-70
2023/10/18 01:29:30;;;;;;;57.15;3.03;;;;;;;;;;5050152;28;20230;-70
2023/10/18 01:31:58;;;;;;;57.37;3.17;;;;;;;;;;5050797;28;20213;-70
2023/10/18 01:34:25;;;;;;;60.30;5.00;;;;;;;;;;5049966;28;20445;-70
2023/10/18 01:36:56;;;;;;;56.70;3.23;;;;;;;;;;5050408;28;20937;-70
2023/10/18 01:39:28;;;;;;;59.60;4.60;;;;;;;;;;5049519;28;20556;-70
2023/10/18 01:41:58;;;;;;;56.67;3.45;;;;;;;;;;5050612;28;20198;-70
2023/10/18 01:44:30;;;;;;;56.67;2.80;;;;;;;;;;5050037;28;20310;-70
2023/10/18 01:47:01;;;;;;;57.83;3.40;;;;;;;;;;5050463;28;20241;-70
2023/10/18 01:49:29;;;;;;;58.27;5.33;;;;;;;;;;5050561;28;20471;-70
2023/10/18 01:51:57;;;;;;;56.50;3.27;;;;;;;;;;5050337;28;20456;-70
2023/10/18 01:54:26;;;;;;;57.22;4.07;;;;;;;;;;5050089;28;20455;-70
2023/10/18 01:56:57;;;;;;;56.83;3.27;;;;;;;;;;5050315;28;20252;-70
2023/10/18 01:59:28;;;;;;;56.78;3.50;;;;;;;;;;5050694;28;20473;-70
2023/10/18 02:01:57;;;;;;;56.90;3.20;;;;;;;;;;5054404;28;20279;-70
2023/10/18 02:04:30;;;;;;;56.60;3.43;;;;;;;;;;5053220;28;20255;-70
2023/10/18 02:06:59;;;;;;;57.38;3.95;;;;;;;;;;5054047;28;20463;-70
2023/10/18 02:09:36;;;;;;;56.70;3.00;;;;;;;;;;5053234;28;20275;-70
2023/10/18 02:12:04;;;;;;;56.70;3.33;;;;;;;;;;5053825;28;20260;-72
2023/10/18 02:14:33;;;;;;;56.63;3.40;;;;;;;;;;5053899;28;20209;-70
2023/10/18 02:17:00;;;;;;;56.40;2.90;;;;;;;;;;5053707;28;20452;-70
2023/10/18 02:19:27;;;;;;;57.28;4.25;;;;;;;;;;5053546;28;20607;-70
2023/10/18 02:21:56;;;;;;;58.10;3.53;;;;;;;;;;5053581;28;20202;-70
2023/10/18 02:24:25;;;;;;;56.58;2.80;;;;;;;;;;5053651;28;20218;-71
2023/10/18 02:26:56;;;;;;;57.70;4.32;;;;;;;;;;5053741;28;20269;-70
2023/10/18 02:29:23;;;;;;;56.70;2.80;;;;;;;;;;5053545;28;20275;-70
2023/10/18 02:31:56;;;;;;;56.67;3.20;;;;;;;;;;5045528;28;20607;-70
2023/10/18 02:34:24;;;;;;;56.88;2.85;;;;;;;;;;5053274;28;20202;-70
2023/10/18 02:36:52;;;;;;;57.17;3.78;;;;;;;;;;5045500;28;20206;-71
2023/10/18 02:39:24;;;;;;;56.80;3.20;;;;;;;;;;5053331;28;20226;-70
2023/10/18 02:41:51;;;;;;;57.03;4.03;;;;;;;;;;5053435;28;20249;-70
2023/10/18 02:44:25;;;;;;;57.10;3.70;;;;;;;;;;5053203;28;20222;-70
2023/10/18 02:46:55;;;;;;;56.95;3.22;;;;;;;;;;5053292;28;20718;-71
2023/10/18 02:49:23;;;;;;;56.70;3.58;;;;;;;;;;5053291;28;20232;-71
2023/10/18 02:51:51;;;;;;;56.90;3.75;;;;;;;;;;5053392;28;20210;-70
2023/10/18 02:54:22;;;;;;;56.70;3.33;;;;;;;;;;5052997;28;20208;-71
2023/10/18 02:56:51;;;;;;;56.70;3.05;;;;;;;;;;5053112;28;20296;-71
2023/10/18 02:59:20;;;;;;;56.97;3.75;;;;;;;;;;5052764;28;20230;-71
2023/10/18 03:01:49;;;;;;;56.80;3.30;;;;;;;;;;5052751;28;20239;-71
2023/10/18 03:04:20;;;;;;;57.15;3.85;;;;;;;;;;5052647;28;20217;-71
2023/10/18 03:06:50;;;;;;;56.80;3.53;;;;;;;;;;5053182;28;20201;-71
2023/10/18 03:09:27;;;;;;;56.47;2.90;;;;;;;;;;5052726;28;20222;-71
2023/10/18 03:11:55;;;;;;;56.92;3.17;;;;;;;;;;5052749;28;20948;-70
2023/10/18 03:14:35;;;;;;;57.38;3.63;;;;;;;;;;5052814;28;20198;-71
2023/10/18 03:17:13;;;;;;;56.80;2.92;;;;;;;;;;5052500;28;20263;-71
2023/10/18 03:19:42;;;;;;;56.50;3.03;;;;;;;;;;5052247;28;20225;-71
2023/10/18 03:22:09;;;;;;;56.50;3.35;;;;;;;;;;5052329;28;20589;-71
2023/10/18 03:24:37;;;;;;;56.70;3.38;;;;;;;;;;5052485;28;20221;-71
2023/10/18 03:27:08;;;;;;;56.77;4.07;;;;;;;;;;5052496;28;20206;-71
2023/10/18 03:29:37;;;;;;;59.15;4.10;;;;;;;;;;5052257;28;20526;-71
2023/10/18 03:32:06;;;;;;;68.68;3.90;;;;;;;;;;5051927;28;20206;-71
2023/10/18 03:34:35;;;;;;;57.40;3.58;;;;;;;;;;5052199;28;20211;-71
2023/10/18 03:37:04;;;;;;;55.90;2.80;;;;;;;;;;5052232;28;20305;-71
2023/10/18 03:39:32;;;;;;;56.90;3.03;;;;;;;;;;5052204;28;20283;-71
2023/10/18 03:42:00;;;;;;;56.97;3.30;;;;;;;;;;5052274;28;20316;-71
2023/10/18 03:44:27;;;;;;;56.67;2.85;;;;;;;;;;5051948;28;20217;-71
2023/10/18 03:47:03;;;;;;;56.58;2.70;;;;;;;;;;5052133;28;20271;-71
2023/10/18 03:49:33;;;;;;;56.47;3.00;;;;;;;;;;5051991;28;20316;-71
2023/10/18 03:52:09;;;;;;;56.72;3.30;;;;;;;;;;5052177;28;20234;-71
2023/10/18 03:54:44;;;;;;;56.72;2.90;;;;;;;;;;5052093;28;20293;-71
2023/10/18 03:57:16;;;;;;;58.00;2.85;;;;;;;;;;5052050;28;20205;-71
2023/10/18 03:59:45;;;;;;;56.40;3.10;;;;;;;;;;5051579;28;20233;-71
2023/10/18 04:02:17;;;;;;;56.97;3.28;;;;;;;;;;5051577;28;20667;-71
2023/10/18 04:04:47;;;;;;;56.67;3.25;;;;;;;;;;5051226;28;20236;-71
2023/10/18 04:07:16;;;;;;;56.70;3.05;;;;;;;;;;5051621;28;20220;-71
2023/10/18 04:09:50;;;;;;;59.72;4.47;;;;;;;;;;5051396;28;20756;-71
2023/10/18 04:12:21;;;;;;;56.90;3.35;;;;;;;;;;5051350;28;20662;-71
2023/10/18 04:14:53;;;;;;;56.58;3.10;;;;;;;;;;5051797;28;20205;-71
2023/10/18 04:17:32;;;;;;;56.47;3.10;;;;;;;;;;5051707;28;20206;-71
2023/10/18 04:20:00;;;;;;;56.50;3.03;;;;;;;;;;5051364;28;20217;-71
2023/10/18 04:22:28;;;;;;;55.90;2.80;;;;;;;;;;5051317;28;20333;-71
2023/10/18 04:24:56;;;;;;;56.70;3.22;;;;;;;;;;5051763;28;20644;-71
2023/10/18 04:27:24;;;;;;;60.88;3.97;;;;;;;;;;5051632;28;20202;-71
2023/10/18 04:29:55;;;;;;;58.95;4.47;;;;;;;;;;5051631;28;20236;-71
2023/10/18 04:32:23;;;;;;;60.75;4.07;;;;;;;;;;5052117;28;20687;-71
2023/10/18 04:34:50;;;;;;;57.63;3.17;;;;;;;;;;5051710;28;20307;-71
2023/10/18 04:37:22;;;;;;;57.22;4.05;;;;;;;;;;5051226;28;20658;-71
2023/10/18 04:39:49;;;;;;;56.50;3.03;;;;;;;;;;5051315;28;20320;-71
2023/10/18 04:42:18;;;;;;;56.55;3.35;;;;;;;;;;5051770;28;20574;-71
2023/10/18 04:44:49;;;;;;;56.50;2.60;;;;;;;;;;5051122;28;20236;-71
2023/10/18 04:47:17;;;;;;;56.92;3.53;;;;;;;;;;5051299;28;20211;-71
2023/10/18 04:50:00;;;;;;;56.50;2.83;;;;;;;;;;5050759;28;20295;-71
2023/10/18 04:52:28;;;;;;;56.50;3.00;;;;;;;;;;5051033;28;20209;-71
2023/10/18 04:55:04;;;;;;;56.30;2.90;;;;;;;;;;5050881;28;20198;-71
2023/10/18 04:57:38;;;;;;;56.70;3.55;;;;;;;;;;5050964;28;20197;-71
2023/10/18 05:00:11;;;;;;;57.15;3.95;;;;;;;;;;5043577;28;20583;-71
2023/10/18 05:02:38;;;;;;;57.00;3.53;;;;;;;;;;5050488;28;20214;-71
2023/10/18 05:05:10;;;;;;;59.20;4.00;;;;;;;;;;5050601;28;20229;-70
2023/10/18 05:07:41;;;;;;;56.70;3.25;;;;;;;;;;5050864;28;20925;-70
2023/10/18 05:10:16;;;;;;;58.05;4.40;;;;;;;;;;5050201;28;20222;-70
2023/10/18 05:12:52;;;;;;;56.88;2.88;;;;;;;;;;5050451;28;20227;-70
2023/10/18 05:15:21;;;;;;;56.67;3.10;;;;;;;;;;5050811;28;20232;-71
2023/10/18 05:17:50;;;;;;;56.65;3.08;;;;;;;;;;5050780;28;20453;-71
2023/10/18 05:20:25;;;;;;;56.50;2.90;;;;;;;;;;5050139;28;20575;-70
2023/10/18 05:22:59;;;;;;;56.72;3.30;;;;;;;;;;5051037;28;20607;-71
2023/10/18 05:25:33;;;;;;;56.85;3.17;;;;;;;;;;5046349;28;20236;-71
2023/10/18 05:28:09;;;;;;;56.60;2.80;;;;;;;;;;5042279;28;20213;-71
2023/10/18 05:33:47;;;;;;;57.70;3.00;;;;;;;;;;5050077;28;20251;-71
2023/10/18 05:38:55;;;;;;;56.60;3.70;;;;;;;;;;5054258;28;20225;-71
2023/10/18 05:41:28;;;;;;;61.60;3.65;;;;;;;;;;5054407;28;20665;-71
2023/10/18 05:43:58;;;;;;;57.28;3.13;;;;;;;;;;5054294;28;20205;-71
2023/10/18 05:46:27;;;;;;;56.30;3.27;;;;;;;;;;5054401;28;20755;-71
2023/10/18 05:48:55;;;;;;;56.38;2.80;;;;;;;;;;5054075;28;20475;-71
2023/10/18 05:51:32;;;;;;;56.60;3.17;;;;;;;;;;5054169;28;20214;-71
2023/10/18 05:54:00;;;;;;;56.47;2.42;;;;;;;;;;5054104;28;20202;-71
2023/10/18 05:56:31;;;;;;;56.50;3.13;;;;;;;;;;5054048;28;20210;-71
2023/10/18 06:01:41;;;;;;;56.90;3.65;;;;;;;;;;5044824;28;20328;-71
2023/10/18 06:04:08;;;;;;;56.60;3.10;;;;;;;;;;5053881;28;20208;-71
2023/10/18 06:06:37;;;;;;;57.35;4.00;;;;;;;;;;5053433;28;20202;-71
2023/10/18 06:09:09;;;;;;;57.17;3.47;;;;;;;;;;5052539;28;20233;-71
2023/10/18 06:11:37;;;;;;;56.80;3.53;;;;;;;;;;5053973;28;20216;-70
2023/10/18 06:14:08;;;;;;;56.57;3.23;;;;;;;;;;5052138;28;20944;-70
2023/10/18 06:16:35;;;;;;;58.37;3.50;;;;;;;;;;5052972;28;20456;-70
2023/10/18 06:19:03;;;;;;;56.17;2.72;;;;;;;;;;5053638;28;21185;-70
2023/10/18 06:21:36;;;;;;;57.17;3.60;;;;;;;;;;5051858;28;20206;-70
2023/10/18 06:24:09;;;;;;;56.37;3.37;;;;;;;;;;5053736;28;20206;-70
2023/10/18 06:26:38;;;;;;;56.70;3.30;;;;;;;;;;5053545;28;20519;-70
2023/10/18 06:29:11;;;;;;;56.28;2.60;;;;;;;;;;5053552;28;20226;-70
2023/10/18 06:31:43;;;;;;;56.80;3.53;;;;;;;;;;5053588;28;20280;-70
2023/10/18 06:34:15;;;;;;;57.60;3.33;;;;;;;;;;5053607;28;20205;-70
2023/10/18 06:36:42;;;;;;;56.20;2.42;;;;;;;;;;5053439;28;20686;-69
2023/10/18 06:39:16;;;;;;;56.83;3.10;;;;;;;;;;5053405;28;20221;-70
2023/10/18 06:41:43;;;;;;;59.20;3.73;;;;;;;;;;5053378;28;20453;-70
2023/10/18 06:44:13;;;;;;;56.50;3.23;;;;;;;;;;5053102;28;20456;-69
2023/10/18 06:46:40;;;;;;;56.30;3.08;;;;;;;;;;5052646;28;21028;-70
2023/10/18 06:49:10;;;;;;;57.90;3.13;;;;;;;;;;5053262;28;20324;-69
2023/10/18 06:51:41;;;;;;;57.20;4.20;;;;;;;;;;5053250;28;20457;-69
2023/10/18 06:54:13;;;;;;;58.03;4.00;;;;;;;;;;5053119;28;20506;-69
2023/10/18 06:56:40;;;;;;;57.45;3.72;;;;;;;;;;5052952;28;20206;-69
2023/10/18 06:59:08;;;;;;;56.97;4.00;;;;;;;;;;5052773;28;20710;-70
2023/10/18 07:01:42;;;;;;;56.93;3.50;;;;;;;;;;5052988;28;20518;-69
2023/10/18 07:04:17;;;;;;;57.27;4.13;;;;;;;;;;5052765;28;20450;-69
2023/10/18 07:06:45;;;;;;;56.67;3.10;;;;;;;;;;5052854;28;20484;-69
2023/10/18 07:09:25;;;;;;;56.30;3.23;;;;;;;;;;5049659;28;20224;-69
2023/10/18 07:11:52;;;;;;;57.00;3.60;;;;;;;;;;5052864;28;20482;-69
2023/10/18 07:14:20;;;;;;;56.40;2.60;;;;;;;;;;5051238;28;20441;-70
2023/10/18 07:16:49;;;;;;;56.40;3.00;;;;;;;;;;5052029;28;20456;-70
2023/10/18 07:19:26;;;;;;;56.23;2.80;;;;;;;;;;5052270;28;20980;-70
2023/10/18 07:21:53;;;;;;;56.27;3.10;;;;;;;;;;5052373;28;20947;-70
2023/10/18 07:24:21;;;;;;;57.57;4.67;;;;;;;;;;5052560;28;20449;-70
2023/10/18 07:26:48;;;;;;;56.17;2.60;;;;;;;;;;5052192;28;20487;-70
2023/10/18 07:29:15;;;;;;;58.80;3.93;;;;;;;;;;5052133;28;20464;-70
2023/10/18 07:31:44;;;;;;;58.20;3.53;;;;;;;;;;5052120;28;20996;-70
2023/10/18 07:34:18;;;;;;;56.47;2.83;;;;;;;;;;5052095;28;20506;-70
2023/10/18 07:36:45;;;;;;;56.17;2.40;;;;;;;;;;5052033;28;20989;-70
2023/10/18 07:39:13;;;;;;;56.80;2.93;;;;;;;;;;5052194;28;20471;-70
2023/10/18 07:41:40;;;;;;;56.47;3.70;;;;;;;;;;5052257;28;20448;-70
2023/10/18 07:44:07;;;;;;;56.50;2.70;;;;;;;;;;5044168;28;20456;-70
2023/10/18 07:46:39;;;;;;;55.87;2.40;;;;;;;;;;5051960;28;20484;-70
2023/10/18 07:49:11;;;;;;;57.57;4.30;;;;;;;;;;5043998;28;20464;-70
2023/10/18 07:51:48;;;;;;;56.67;2.97;;;;;;;;;;5052073;28;20453;-70
2023/10/18 07:54:15;;;;;;;56.87;3.10;;;;;;;;;;5044963;28;20511;-70
2023/10/18 07:56:48;;;;;;;57.87;3.43;;;;;;;;;;5051476;28;20444;-70
2023/10/18 07:59:28;;;;;;;57.27;3.53;;;;;;;;;;5051188;28;20468;-70
2023/10/18 08:02:09;;;;;;;56.90;3.30;;;;;;;;;;5051797;28;20452;-70
2023/10/18 08:04:37;;;;;;;56.27;2.50;;;;;;;;;;5051744;28;20459;-71
2023/10/18 08:07:10;;;;;;;57.47;2.80;;;;;;;;;;5051584;28;20537;-70
2023/10/18 08:09:39;;;;;;;55.93;3.10;;;;;;;;;;5051447;28;20476;-70
2023/10/18 08:12:07;;;;;;;56.90;3.70;;;;;;;;;;5043571;28;20447;-70
2023/10/18 08:14:35;;;;;;;56.83;3.00;;;;;;;;;;5051524;28;20453;-70
2023/10/18 08:17:09;;;;;;;56.27;2.40;;;;;;;;;;5051466;28;20447;-70
2023/10/18 08:19:44;;;;;;;57.00;3.37;;;;;;;;;;5051308;28;20551;-70
2023/10/18 08:22:27;;;;;;;59.93;3.90;;;;;;;;;;5043617;28;20452;-71
2023/10/18 08:24:54;;;;;;;57.00;3.13;;;;;;;;;;5051101;28;20583;-70
2023/10/18 08:27:21;;;;;;;57.43;3.87;;;;;;;;;;5051292;28;20465;-70
2023/10/18 08:29:53;;;;;;;56.20;2.77;;;;;;;;;;5051030;28;20476;-70
2023/10/18 08:32:29;;;;;;;56.80;3.07;;;;;;;;;;5051144;28;20514;-70
2023/10/18 08:35:05;;;;;;;56.70;3.20;;;;;;;;;;5051167;28;20541;-70
2023/10/18 08:37:36;;;;;;;56.70;2.97;;;;;;;;;;5051289;28;20459;-70
2023/10/18 08:40:06;;;;;;;57.20;3.37;;;;;;;;;;5050916;28;20505;-70
2023/10/18 08:42:39;;;;;;;57.67;3.30;;;;;;;;;;5051009;28;20842;-71
2023/10/18 08:45:08;;;;;;;58.10;3.57;;;;;;;;;;5050629;28;20448;-71
2023/10/18 08:47:39;;;;;;;56.30;3.00;;;;;;;;;;5051229;28;20440;-71
2023/10/18 08:50:07;;;;;;;57.30;3.13;;;;;;;;;;5050878;28;20464;-71
2023/10/18 08:52:39;;;;;;;56.97;2.80;;;;;;;;;;5050947;28;20450;-71
2023/10/18 08:55:22;;;;;;;56.77;3.10;;;;;;;;;;5051025;28;20471;-69
2023/10/18 08:57:55;;;;;;;59.70;3.63;;;;;;;;;;5051056;28;21015;-69
2023/10/18 09:03:07;;;;;;;57.20;4.30;;;;;;;;;;5063137;28;20906;-69
2023/10/18 09:05:35;;;;;;;57.37;3.23;;;;;;;;;;5071512;28;20537;-69
2023/10/18 09:08:04;;;;;;;57.83;3.87;;;;;;;;;;5071393;28;20549;-69
2023/10/18 09:10:43;;;;;;;56.70;2.73;;;;;;;;;;5067385;28;20499;-69
2023/10/18 09:16:01;;;;;;;57.50;2.83;;;;;;;;;;5058568;28;20497;-70
2023/10/18 09:18:30;;;;;;;56.40;2.60;;;;;;;;;;5064441;28;20448;-70
2023/10/18 09:21:04;;;;;;;56.30;2.40;;;;;;;;;;5074973;28;20450;-70
2023/10/18 09:23:32;;;;;;;56.97;3.00;;;;;;;;;;5079947;28;20456;-70
2023/10/18 09:26:07;;;;;;;56.67;3.53;;;;;;;;;;5078859;28;20490;-70
2023/10/18 09:28:35;;;;;;;60.53;3.60;;;;;;;;;;5078343;28;20488;-70
2023/10/18 09:31:09;;;;;;;57.30;3.43;;;;;;;;;;5079569;28;20492;-70
2023/10/18 09:33:37;;;;;;;57.03;3.30;;;;;;;;;;5066182;28;20447;-71
2023/10/18 09:36:18;;;;;;;56.47;2.90;;;;;;;;;;5058121;28;20535;-70
2023/10/18 09:38:47;;;;;;;56.90;3.03;;;;;;;;;;5057993;28;20545;-71
2023/10/18 09:41:14;;;;;;;57.33;3.60;;;;;;;;;;5049692;28;20450;-71
2023/10/18 09:43:41;;;;;;;56.57;2.73;;;;;;;;;;5057789;28;20543;-71
2023/10/18 09:46:10;;;;;;;57.80;3.40;;;;;;;;;;5057386;28;20492;-70
2023/10/18 09:48:41;;;;;;;57.33;3.20;;;;;;;;;;5057498;28;20990;-70
2023/10/18 09:51:08;;;;;;;58.20;3.47;;;;;;;;;;5057611;28;20451;-70
2023/10/18 09:53:36;;;;;;;58.20;3.10;;;;;;;;;;5057378;28;20482;-70
2023/10/18 09:56:06;;;;;;;56.87;2.60;;;;;;;;;;5057148;28;20537;-70
2023/10/18 09:58:41;;;;;;;56.90;3.17;;;;;;;;;;5057264;28;20998;-71
2023/10/18 10:01:14;;;;;;;58.30;3.80;;;;;;;;;;5057457;28;20456;-71
2023/10/18 10:03:50;;;;;;;58.50;3.73;;;;;;;;;;5057698;28;20450;-71
2023/10/18 10:06:18;;;;;;;57.50;2.73;;;;;;;;;;5057911;28;20981;-70
2023/10/18 10:08:47;;;;;;;56.70;2.77;;;;;;;;;;5057397;28;20475;-71
2023/10/18 10:11:19;;;;;;;57.83;2.80;;;;;;;;;;5057420;28;20457;-71
2023/10/18 10:13:49;;;;;;;56.67;2.60;;;;;;;;;;5057438;28;20444;-71
2023/10/18 10:16:18;;;;;;;57.10;3.50;;;;;;;;;;5057610;28;20447;-71
2023/10/18 10:18:47;;;;;;;56.53;2.63;;;;;;;;;;5057329;28;20471;-71
2023/10/18 10:21:16;;;;;;;56.70;2.70;;;;;;;;;;5054266;28;20932;-71
2023/10/18 10:23:43;;;;;;;57.00;2.73;;;;;;;;;;5054109;28;20536;-71
2023/10/18 10:26:15;;;;;;;56.60;2.80;;;;;;;;;;5054122;28;20492;-71
2023/10/18 10:29:10;;;;;;;57.17;2.57;;;;;;;;;;5052774;28;20483;-71
2023/10/18 10:31:55;;;;;;;56.80;2.87;;;;;;;;;;5048902;28;20459;-71
2023/10/18 10:34:27;;;;;;;57.53;2.83;;;;;;;;;;5053804;28;20539;-71
2023/10/18 10:36:56;;;;;;;58.00;3.63;;;;;;;;;;5044581;28;20487;-71
2023/10/18 10:39:24;;;;;;;57.10;2.90;;;;;;;;;;5053373;28;20468;-71
2023/10/18 10:41:51;;;;;;;56.67;2.67;;;;;;;;;;5053032;28;20947;-71
2023/10/18 10:44:23;;;;;;;56.07;2.50;;;;;;;;;;5053777;28;20467;-71
2023/10/18 10:46:51;;;;;;;58.47;2.60;;;;;;;;;;5053434;28;20490;-73
2023/10/18 10:49:41;;;;;;;57.97;3.00;;;;;;;;;;5053369;28;20477;-71
2023/10/18 10:52:08;;;;;;;57.77;3.13;;;;;;;;;;5049702;28;20457;-71
2023/10/18 10:54:37;;;;;;;56.87;3.03;;;;;;;;;;5053400;28;20448;-71
2023/10/18 10:57:08;;;;;;;57.47;2.73;;;;;;;;;;5053250;28;20822;-71
2023/10/18 10:59:41;;;;;;;58.30;2.87;;;;;;;;;;5053316;28;20471;-71
2023/10/18 11:02:08;;;;;;;56.00;1.90;;;;;;;;;;5053598;28;20549;-71
2023/10/18 11:04:57;;;;;;;58.07;3.60;;;;;;;;;;5053254;28;20866;-71
2023/10/18 11:07:25;;;;;;;56.57;2.70;;;;;;;;;;5048346;28;20572;-71
2023/10/18 11:09:59;;;;;;;57.03;2.40;;;;;;;;;;5052457;28;20473;-71
2023/10/18 11:12:27;;;;;;;57.27;3.07;;;;;;;;;;5052915;28;20474;-71
2023/10/18 11:14:55;;;;;;;56.00;1.87;;;;;;;;;;5052849;28;20808;-71
2023/10/18 11:17:24;;;;;;;56.40;2.27;;;;;;;;;;5052655;28;20475;-71
2023/10/18 11:19:53;;;;;;;56.23;2.17;;;;;;;;;;5052612;28;20486;-71
2023/10/18 11:22:21;;;;;;;56.03;2.10;;;;;;;;;;5052805;28;20533;-71
2023/10/18 11:24:50;;;;;;;57.37;3.03;;;;;;;;;;5052660;28;20501;-71
2023/10/18 11:27:18;;;;;;;56.80;2.90;;;;;;;;;;5052805;28;20509;-71
2023/10/18 11:29:46;;;;;;;56.60;2.30;;;;;;;;;;5052294;28;20473;-71
2023/10/18 11:32:18;;;;;;;56.27;2.50;;;;;;;;;;5051707;28;20817;-71
2023/10/18 11:34:45;;;;;;;56.60;2.33;;;;;;;;;;5052507;28;21023;-71
2023/10/18 11:37:26;;;;;;;56.10;2.40;;;;;;;;;;5052573;28;20455;-71
2023/10/18 11:39:55;;;;;;;56.50;2.50;;;;;;;;;;5052138;28;20471;-71
2023/10/18 11:42:22;;;;;;;57.10;2.50;;;;;;;;;;5052176;28;20548;-71
2023/10/18 11:44:54;;;;;;;56.50;2.30;;;;;;;;;;5052229;28;20452;-71
2023/10/18 11:47:23;;;;;;;57.10;2.70;;;;;;;;;;5052281;28;20489;-71
2023/10/18 11:49:53;;;;;;;57.60;2.43;;;;;;;;;;5051953;28;20471;-72
2023/10/18 11:52:22;;;;;;;56.30;2.23;;;;;;;;;;5044122;28;20458;-71
2023/10/18 11:54:52;;;;;;;56.40;2.30;;;;;;;;;;5052015;28;20476;-71
2023/10/18 11:57:26;;;;;;;57.27;3.00;;;;;;;;;;5044119;28;20447;-71
2023/10/18 11:59:54;;;;;;;57.30;3.20;;;;;;;;;;5051963;28;20464;-71
2023/10/18 12:02:25;;;;;;;56.50;2.40;;;;;;;;;;5052046;28;20466;-71
2023/10/18 12:04:53;;;;;;;57.00;2.47;;;;;;;;;;5053551;28;20854;-71
2023/10/18 12:07:22;;;;;;;56.60;2.77;;;;;;;;;;5059559;28;20484;-71
2023/10/18 12:09:51;;;;;;;56.17;2.23;;;;;;;;;;5060311;28;20468;-71
2023/10/18 12:12:20;;;;;;;56.60;2.30;;;;;;;;;;5061292;28;20502;-71
2023/10/18 12:14:47;;;;;;;56.20;2.20;;;;;;;;;;5060878;28;20462;-71
2023/10/18 12:17:15;;;;;;;56.90;2.37;;;;;;;;;;5061648;28;20443;-71
2023/10/18 12:19:43;;;;;;;56.50;2.40;;;;;;;;;;5061720;28;20764;-71
2023/10/18 12:22:13;;;;;;;56.47;2.23;;;;;;;;;;5062326;28;20445;-71
2023/10/18 12:24:41;;;;;;;56.50;2.63;;;;;;;;;;5062177;28;20460;-71
2023/10/18 12:27:18;;;;;;;57.27;2.80;;;;;;;;;;5062691;28;20489;-71
2023/10/18 12:29:45;;;;;;;56.90;2.20;;;;;;;;;;5060957;28;20490;-71
2023/10/18 12:32:25;;;;;;;56.43;2.33;;;;;;;;;;5060417;28;20532;-71
2023/10/18 12:34:57;;;;;;;56.63;2.50;;;;;;;;;;5060359;28;20447;-71
2023/10/18 12:37:25;;;;;;;56.07;2.00;;;;;;;;;;5061717;28;20452;-71
2023/10/18 12:39:52;;;;;;;56.80;2.20;;;;;;;;;;5061515;28;20498;-71
2023/10/18 12:42:21;;;;;;;56.30;2.07;;;;;;;;;;5061618;28;20461;-71
2023/10/18 12:44:48;;;;;;;56.27;2.27;;;;;;;;;;5055938;28;20866;-71
2023/10/18 12:47:19;;;;;;;56.87;2.70;;;;;;;;;;5051284;28;20864;-71
2023/10/18 12:49:47;;;;;;;56.20;2.00;;;;;;;;;;5051119;28;20477;-70
2023/10/18 12:54:56;;;;;;;56.23;2.10;;;;;;;;;;5050592;28;20448;-71
2023/10/18 12:57:32;;;;;;;56.40;2.20;;;;;;;;;;5050810;28;20449;-70
2023/10/18 13:00:13;;;;;;;56.40;2.27;;;;;;;;;;5050820;28;20521;-70
2023/10/18 13:02:51;;;;;;;57.13;2.43;;;;;;;;;;5050859;28;20455;-70
2023/10/18 13:05:18;;;;;;;56.07;2.23;;;;;;;;;;5050592;28;20443;-71
2023/10/18 13:07:46;;;;;;;56.27;2.33;;;;;;;;;;5050636;28;20841;-71
2023/10/18 13:10:13;;;;;;;57.87;3.10;;;;;;;;;;5050725;28;20473;-71
2023/10/18 13:12:44;;;;;;;56.33;2.13;;;;;;;;;;5050888;28;20498;-71
2023/10/18 13:15:14;;;;;;;56.47;2.33;;;;;;;;;;5050767;28;20458;-71
2023/10/18 13:17:42;;;;;;;56.07;2.10;;;;;;;;;;5050842;28;20971;-71
2023/10/18 13:20:15;;;;;;;56.13;2.20;;;;;;;;;;5050290;28;20473;-71
2023/10/18 13:22:42;;;;;;;56.80;2.47;;;;;;;;;;5051027;28;20520;-71
2023/10/18 13:25:25;;;;;;;57.23;2.80;;;;;;;;;;5051089;28;20457;-71
2023/10/18 13:27:54;;;;;;;56.50;2.57;;;;;;;;;;5050708;28;20476;-71
2023/10/18 13:30:32;;;;;;;56.60;2.33;;;;;;;;;;5050653;28;20493;-71
2023/10/18 13:33:01;;;;;;;56.30;2.53;;;;;;;;;;5050463;28;20460;-71
2023/10/18 13:35:29;;;;;;;56.50;2.50;;;;;;;;;;5050509;28;20990;-70
2023/10/18 13:37:56;;;;;;;56.20;2.20;;;;;;;;;;5050612;28;20444;-71
2023/10/18 13:40:27;;;;;;;56.37;2.20;;;;;;;;;;5050491;28;20467;-71
2023/10/18 13:42:54;;;;;;;56.60;2.73;;;;;;;;;;5050454;28;20456;-70
2023/10/18 13:45:26;;;;;;;56.47;2.40;;;;;;;;;;5050440;28;20956;-69
2023/10/18 13:47:58;;;;;;;56.33;2.23;;;;;;;;;;5050744;28;20573;-69
2023/10/18 13:50:25;;;;;;;56.57;2.30;;;;;;;;;;5043109;28;20911;-70
2023/10/18 13:52:53;;;;;;;56.47;2.37;;;;;;;;;;5050568;28;20453;-70
2023/10/18 13:55:20;;;;;;;56.77;2.20;;;;;;;;;;5050581;28;20450;-70
2023/10/18 13:57:49;;;;;;;55.97;2.10;;;;;;;;;;5054180;28;20440;-69
2023/10/18 14:00:18;;;;;;;55.97;2.00;;;;;;;;;;5054049;28;20477;-69
2023/10/18 14:02:45;;;;;;;56.53;2.17;;;;;;;;;;5054223;28;20937;-70
2023/10/18 14:05:12;;;;;;;56.27;2.40;;;;;;;;;;5054174;28;20448;-70
2023/10/18 14:07:41;;;;;;;58.00;2.67;;;;;;;;;;5054286;28;20492;-69
2023/10/18 14:10:19;;;;;;;56.17;2.10;;;;;;;;;;5053704;28;20472;-70
2023/10/18 14:12:46;;;;;;;56.20;2.30;;;;;;;;;;5054050;28;20448;-70
2023/10/18 14:15:16;;;;;;;56.27;2.47;;;;;;;;;;5053810;28;20460;-70
2023/10/18 14:17:43;;;;;;;57.00;2.80;;;;;;;;;;5053908;28;20452;-70
2023/10/18 14:20:11;;;;;;;57.07;2.80;;;;;;;;;;5053968;28;20848;-70
2023/10/18 14:22:39;;;;;;;56.30;2.10;;;;;;;;;;5054018;28;20812;-70
2023/10/18 14:25:08;;;;;;;56.73;2.47;;;;;;;;;;5053840;28;20444;-70
2023/10/18 14:27:36;;;;;;;57.00;2.20;;;;;;;;;;5053548;28;21114;-70
2023/10/18 14:30:03;;;;;;;56.90;2.43;;;;;;;;;;5053371;28;20468;-70
2023/10/18 14:32:33;;;;;;;56.07;2.30;;;;;;;;;;5053851;28;20606;-70
2023/10/18 14:35:00;;;;;;;56.23;2.00;;;;;;;;;;5053622;28;20446;-70
2023/10/18 14:37:27;;;;;;;56.53;2.50;;;;;;;;;;5053412;28;20438;-70
2023/10/18 14:39:56;;;;;;;57.10;2.53;;;;;;;;;;5053280;28;20988;-70
2023/10/18 14:42:28;;;;;;;57.17;2.70;;;;;;;;;;5053171;28;20968;-70
2023/10/18 14:44:57;;;;;;;56.50;2.50;;;;;;;;;;5053499;28;20464;-70
2023/10/18 14:47:24;;;;;;;57.20;2.67;;;;;;;;;;5053124;28;20847;-70
2023/10/18 14:49:53;;;;;;;56.33;2.30;;;;;;;;;;5052935;28;21002;-70
2023/10/18 14:52:20;;;;;;;56.07;2.03;;;;;;;;;;5053074;28;20451;-70
2023/10/18 14:54:49;;;;;;;56.37;2.33;;;;;;;;;;5053281;28;20448;-71
2023/10/18 14:57:19;;;;;;;56.73;3.03;;;;;;;;;;5053081;28;20447;-71
2023/10/18 14:59:46;;;;;;;56.17;2.10;;;;;;;;;;5053082;28;20483;-71
2023/10/18 15:02:14;;;;;;;57.10;3.07;;;;;;;;;;5052704;28;20459;-70
2023/10/18 15:04:41;;;;;;;56.37;2.47;;;;;;;;;;5053250;28;20444;-70